New York State Corporations
Zip 11416

Jurisdiction: New York State
Source: New York State Department of State (NYSDOS)

This dataset includes 2.43 million business entities and corporations registered with New York State Department of State (NYSDOS). Each entity is registered with DOS ID, business name, location, registered agent, CEO, etc.

11416 · Search Result

Entity Name Office Address Start Date
JAY MOHABIR LLC 103-19 97th Street, Ozone Park, New York 11416 2018-09-28
CITY LINE FAMILY DELI & GROCERY INC 74-74-25 101st Ave, Ozone Park, New York 11416 2018-09-26
QUANTUM 3, LLC 9533 97th St, Ozone Park, New York 11416 2018-09-21
BIG & CHEAP MERCHANDISE INC. 101-08 97th Avenue, Ozone Park, New York 11416 2018-09-21
AA UPHOLSTERY INC 101-25 98th Street, Ozone Park, New York 11416 2018-09-19
YR 99 CENTS STORE, LLC 9730 99th Street, Ozone Park, New York 11416 2018-09-18
TEAM SOLD NYC INC. 96-10 101 Avenue, Ozone Park, New York 11416 2018-09-18
HALAL DESHI BAZAR INC 74-16 101st Ave, Ozone Park, New York 11416 2018-09-18
LELLA TRANSPORTATION SAFETY TRAINING AND BUS SERVICE LLC 97-34 85th Street, Ozone Park, New York 11416 2018-09-10
VOLTRON ELECTRICAL CONTRACTING CORP. 86-30 102nd Avenue 3rd Floor, Ozone Park, New York 11416 2018-09-07
OZONE PARK BLOCK ASSOCIATION, INC. 86-11 95th Avenue, Ozone Park, New York 11416 2018-09-06
104 GOURMET DELI CORP 95-01 104 St, Ozone Park, New York 11416 2018-09-06
HOSHNA SULTAN INC 8138 102nd Ave, Ozone Park, New York 11416 2018-09-05
94-27 85 ST CORP 94-27 85 St, Ozone Park, New York 11416 2018-09-04
COLD DRIVING SCHOOL, INC. 77-17 95th Avenue, Ozone Park, New York 11416 2018-09-04
8020 ROCKAWAY BOULEVARD LLC 93-02 Atlantic Ave, Ozone Park, New York 11416 2018-08-24
JOE THE SHOE TAXI LLC 9730 91st Street, Apt. #1, Ozone Park, New York 11416 2018-08-20
MSK TRADING USA INC 107-14 97th Ave, South Richmond Hill, New York 11416 2018-08-20
NY OZ PARK INC 9742 81st St, Ozone Park, New York 11416 2018-08-16
NY GOLDEN CONSTRUCTION CORP. 9746 107th Street, Apt. 2, Ozone Park, New York 11416 2018-08-16
SAKH 11, LLC 93-12 101st Avenue, Ozone Park, New York 11416 2018-08-16
ALPHA JETTING SEWER & DRAIN CLEANING CORP 10001 97 Ave, Ozone Park, New York 11416 2018-08-15
KVL EVENTS LLC 9749 103rd Street 1st Floor, Ozone Park, New York 11416 2018-08-14
CICILFAMILY INC. 9217 101st Avenue, Ozone Park, New York 11416 2018-08-14
ARA FASHION HOUSE INC 7511 101st Avenue, Ozone Park, New York 11416 2018-08-13
AKMM CONSULTING LLC 101-08 95 Street, 2nd Floor, Ozone Park, New York 11416 2018-08-09
85-09 101 PROPERTY LLC 85-09 101 Avenue, Ozone Park, New York 11416 2018-08-09
D FIRM LLC 104-07 95th Ave, Ozone Park, New York 11416 2018-08-06
JA GREEN HOMES INC. 101-11 107th Street Fl. 1, Ozone Park, New York 11416 2018-08-03
H&G 165TH STREET INC 106-05 97th Ave, Ozone Park, New York 11416 2018-08-02
LUXURY AUTO SPORTS INC 9017 Rockaway Blvd, Ozone Park, New York 11416 2018-08-02
ABIDA AGRO LLC 97-53 85th Street, Ozone, New York 11416 2018-08-01
VECS CONSULTING GROUP LLC 101-08 95 Street, 2nd Floor, Ozone Park, New York 11416 2018-08-01
404 LINWOOD STREET LLC 100-02 101st Avenue, Suite Ll-1, Ozone Park, New York 11416 2018-07-31
101-29 LLC 94-01 101 Avenue, Ozone Park, New York 11416 2018-07-26
95-19 WOODHAVEN CT, INC. 95-19 Woodhaven Ct, Ozone Park, New York 11416 2018-07-25
TINTO CAFE BAKERY INC 81-18 101 Ave, Ozone Park, New York 11416 2018-07-24
PHILANTHROPIC NETWORK, INC. 97-14 82 Street, Ozone Park, New York 11416 2018-07-23
SMILE PHONESHOP INC 7515 101st Ave, Ozone Park, New York 11416 2018-07-23
LALL INVESTORS LLC 105-18 95th Avenue, Ozone Park, New York 11416 2018-07-23
EMPOWERING COMMUNITY IN SEARCH FOR WORK, INC. 89-19 97th Avenue, Ozone Park, New York 11416 2018-07-20
SIGNATURE LEO, LLC 86-04 102nd Ave, Unit 2, Queens, New York 11416 2018-07-19
LIFT AMBULETTE CORP 83-10 Rockaway Blvd., Ozone Park, New York 11416 2018-07-19
119-44 155 ST. INC. 104-32 94th Avenue, Ozone Park, New York 11416 2018-07-17
V & W MAINTENANCE LLC 9402 77th St 2f, Ozone Park, New York 11416 2018-07-13
IDEA CONSULTING INC 104-05 101 Avenue, Ozone Park, New York 11416 2018-07-12
J S RAG LLC 78-20, 101st Ave, Ozone Park, New York 11416 2018-07-12
AXIS REHABCARE LLC 10205 101 Ave, Ozone Park, New York 11416 2018-07-11
LOGICAL DATA SOLUTIONS INC 94-01 101 Avenue, Ozone Park, New York 11416 2018-07-11
BROTHERS PROVISIONS CORP 10121 78th Street, Ozone Park, New York 11416 2018-07-09
HD TRUCKING SERVICES INC 97-37 105th Street, Ozone Park, New York 11416-2708 2018-07-06
H&G 146TH STREET INC 106-05 97th Ave, Ozone Park, New York 11416 2018-07-06
H&G MCBRIDE AVE INC 106-05 97th Ave, Ozone Park, New York 11416 2018-07-06
TOWNS TRANSPORTATION INC 9701 101 Ave, Ozone Park, New York 11416 2018-07-03
JFNB PROPERTY LLC 9526 Culloden Pl 1f, Ozone Park, New York 11416 2018-07-03
QUALIFIED AUTO BODY WORKS INC. 100-15 94th Ave., South Ozone Park, New York 11416 2018-07-03
ANMOL BUILDERS INC 9502 104th Street Fl 3, South Ozone Park, New York 11416 2018-07-02
NEW FIELD CONSTRUCTION INC 107-14 97th Avenue, Ozone Park, New York 11416 2018-06-26
STUDIO 167 CAR SPA & DETAILING INC 97-48 76 St, Ozone Park, New York 11416 2018-06-26
EJ DIVA NAILS INC 102-09 101st Avenue, Ozone Park, New York 11416 2018-06-22
SHOKIA & SONS, CORP. 95-26 97th Street, Ozone Park, New York 11416 2018-06-20
CON AMOR BAKERY JUICE BAR INC. 95-02 101st Avenue, Ozone Park, New York 11416 2018-06-20
CARIBBEAN TUNA EXPORTS, LLC 97-48 105th St., Ozone Park, New York 11416 2018-06-20
JUICE 101 LLC 95-13 95th St, Ozone Park, New York 11416 2018-06-19
FOUR SEASON AUTO REPAIR INC. 8719 Rockaway Blvd., Ozone Park, New York 11416 2018-06-19
SARAH & ARIEL ENTERPRISE LLC 95-15 101st St., Ozone Park, New York 11416 2018-06-19
GATEWAY FINANCIAL SERVICES INC. 104-32 94th Avenue, Ozone Park, New York 11416 2018-06-19
NELLI'S KITCHEN, INC. 80-15 95th Avenue, 2nd Fl., Ozone Park, New York 11416 2018-06-18
M & J PEROZE SANGOWAL, CORP. 101-48 105 St., Ozone Park, New York 11416 2018-06-14
US2BD EXPORTS INC 10121 106th Street, Ozone Park, New York 11416 2018-06-13
BABY BROTHERS, INC. 101-20 92nd St., Ozone Park, New York 11416 2018-06-13
523 CRESCENT ST 3 CORP 9724 Drew Street, 2nd Flor, Ozone Park, New York 11416 2018-06-12
FULKOLE RESTAURANT INC 7512 97th Ave, Ozone Park, New York 11416 2018-06-11
24 HOUR LOCKSMITH QUEENS INC. 84-23 Rockaway Blvd., Jamaica, New York 11416 2018-06-11
CARIBBEAN ENTERTAINMENT HUB LLC 77-15 101st Avenue, Ozone Park, New York 11416 2018-06-08
NR COMPUTER SERVICES INC. 78-04 97 Avenue, Ozone Park, New York 11416 2018-06-06
SATTER ABDIN LTD. 83-10 Rockaway Blvd., Ozone Park, New York 11416 2018-06-06
DUCO FOODS CORP 7414 95th Ave., Ozone Park, New York 11416 2018-06-05
TOMAS & HENRY CORPORATION 106-02 101 Avenue Suite 200, Ozone Park, New York 11416 2018-06-04
FIRST COMPLIANCE LLC 101-17 97th Street, Ozone Park, New York 11416 2018-06-04
MADISON TILE AND KITCHEN LLC 95-25 78th Street, Ozone Park, New York 11416 2018-06-01
A & L CONSTRUCTION I INC 106-02 101 Avenue Suite 200, Ozone Park, New York 11416 2018-06-01
101-45 LLC 101-45 103 Street, Ozone Park, New York 11416 2018-05-31
J & A ENTERPRISE OF NY CORP. 100-02 Atlantic Avenue, Ozone Park, New York 11416 2018-05-30
AMP SYNERGY INC 10143 95th St Apt 4, Ozone Park, New York 11416 2018-05-29
VIP PLUMBING AND HEATING INC 101-11 100th Street, Ozone Park, New York, New York 11416 2018-05-29
1222 PROPERTY MGMT, INC. 10507 101st Road, Ozone Park, New York 11416 2018-05-24
FAULISI LAW FIRM PLLC 101-42 99th Street, Ozone Park, New York 11416 2018-05-23
RAYYAN WIRELESS INC 74-03 101 St Ave, Ozone Park, New York 11416 2018-05-23
JAY ST FRESH 99 CENTS PIZZA INC 101-18 80th Street, Ozone Park, New York 11416 2018-05-21
MANNAN SWEETS INC 75-13 101st Ave, Ozone Park, New York 11416 2018-05-18
H&G EAST 55TH STREET INC 106-05 97th Ave, Ozone Park, New York 11416 2018-05-17
TIME SAVERS CONSULTING LLC 88-02 97th Ave, Ozone Park, New York 11416 2018-05-16
DAMIAN POLISH AMERICAN FOODS INC 9304 101st Ave, Ozone Park, New York 11416 2018-05-16
SIXTA BOUTIQUE INC 9402 80th Street, Ozone Park, New York 11416 2018-05-15
OLEO VENTURES CORP 7509 95th Ave, Ozone Park, New York 11416 2018-05-15
A&K BEACH AVENUE INC 106-05 97th Ave, Ozone Park, New York 11416 2018-05-15
9222 FLATLANDS AVE. REALTY, LLC 89-01 Rockaway Blvd., Ozone Park, New York 11416 2018-05-14
OU SUNRISE RESTAURANT INC. 96-07 101st Ave, Ozone Park, New York 11416 2018-05-10
OZONE PARK QUALITY CARE MEDICINE, PLLC 77-21 101st Avenue, Ozone Park, New York 11416 2018-05-08